This is the latest recevied weather packets stored in our database for station/object KB3FKJ. If no packets are shown the sender has not sent any weather packets the latest 10 day(s).
| Time | Temp. | Humidity | Pressure | Rain* | Wind** | Luminosity | Snow |
|---|---|---|---|---|---|---|---|
| 1777473178 | 11.11° C | 92% | 1011.9 hPa | 0 mm | - | 50 W/m² | - |
| 1777472875 | 11.11° C | 92% | 1011.9 hPa | 0 mm | - | 37 W/m² | - |
| 1777472571 | 11.11° C | 92% | 1012.1 hPa | 0 mm | - | 24 W/m² | - |
| 1777472268 | 11.11° C | 92% | 1012 hPa | 0 mm | - | 26 W/m² | - |
| 1777471963 | 11.11° C | 93% | 1012.1 hPa | 0 mm | - | 23 W/m² | - |
| 1777471660 | 11.11° C | 93% | 1012.1 hPa | 0 mm | - | 22 W/m² | - |
| 1777471357 | 11.11° C | 92% | 1012.3 hPa | 0 mm | - | 20 W/m² | - |
| 1777471054 | 11.11° C | 92% | 1012.1 hPa | 0 mm | - | 26 W/m² | - |
| 1777470750 | 11.11° C | 92% | 1012.1 hPa | 0 mm | - | 24 W/m² | - |
| 1777470447 | 11.11° C | 92% | 1012.2 hPa | 0 mm | - | 26 W/m² | - |
| 1777470143 | 11.11° C | 92% | 1011.9 hPa | 0 mm | - | 31 W/m² | - |
| 1777469840 | 11.11° C | 92% | 1012.3 hPa | 0 mm | - | 22 W/m² | - |
| 1777469536 | 11.11° C | 92% | 1012.1 hPa | 0 mm | - | 25 W/m² | - |
| 1777469231 | 11.11° C | 92% | 1011.9 hPa | 0 mm | - | 29 W/m² | - |
| 1777468931 | 11.11° C | 92% | 1011.8 hPa | 0 mm | - | 33 W/m² | - |
| 1777468628 | 11.11° C | 92% | 1012 hPa | 0 mm | - | 32 W/m² | - |
| 1777468324 | 11.11° C | 92% | 1012.1 hPa | 0 mm | - | 30 W/m² | - |
| 1777468021 | 11.11° C | 92% | 1012.2 hPa | 0 mm | - | 28 W/m² | - |
| 1777467716 | 11.11° C | 92% | 1012.3 hPa | 0 mm | - | 26 W/m² | - |
| 1777467412 | 11.11° C | 92% | 1012.2 hPa | 0 mm | - | 24 W/m² | - |
| 1777467108 | 11.11° C | 92% | 1012.2 hPa | 0 mm | - | 30 W/m² | - |
| 1777466805 | 11.11° C | 92% | 1012 hPa | 0 mm | - | 34 W/m² | - |
| 1777466503 | 11.11° C | 92% | 1012.3 hPa | 0 mm | - | 31 W/m² | - |
| 1777466199 | 10.56° C | 92% | 1012.5 hPa | 0 mm | - | 26 W/m² | - |
| 1777465895 | 10.56° C | 92% | 1012.5 hPa | 0 mm | - | 24 W/m² | - |
* Rain latest hour (hover to see other rain measurements)
** Current wind speed in m/s (hover to see current wind gust speed)